sensor_id;sensor_type;location;lat;lon;timestamp;temperature;humidity
42913;DHT22;50720;54.324;18.558;2023-04-25T00:01:38;11.80;99.90
42913;DHT22;50720;54.324;18.558;2023-04-25T00:04:07;11.90;99.90
42913;DHT22;50720;54.324;18.558;2023-04-25T00:06:38;11.80;99.90
42913;DHT22;50720;54.324;18.558;2023-04-25T00:09:07;11.80;99.90
42913;DHT22;50720;54.324;18.558;2023-04-25T00:11:39;11.80;99.90
42913;DHT22;50720;54.324;18.558;2023-04-25T00:14:11;11.90;99.90
42913;DHT22;50720;54.324;18.558;2023-04-25T00:16:41;11.80;99.90
42913;DHT22;50720;54.324;18.558;2023-04-25T00:19:11;11.80;99.90
42913;DHT22;50720;54.324;18.558;2023-04-25T00:21:42;11.90;99.90
42913;DHT22;50720;54.324;18.558;2023-04-25T00:24:14;11.80;99.90
42913;DHT22;50720;54.324;18.558;2023-04-25T00:26:43;11.80;99.90
42913;DHT22;50720;54.324;18.558;2023-04-25T00:29:15;11.70;99.90
42913;DHT22;50720;54.324;18.558;2023-04-25T00:31:45;11.80;99.90
42913;DHT22;50720;54.324;18.558;2023-04-25T00:34:14;11.70;99.90
42913;DHT22;50720;54.324;18.558;2023-04-25T00:36:44;11.70;99.90
42913;DHT22;50720;54.324;18.558;2023-04-25T00:39:13;11.80;99.90
42913;DHT22;50720;54.324;18.558;2023-04-25T00:41:43;11.70;99.90
42913;DHT22;50720;54.324;18.558;2023-04-25T00:44:16;11.70;99.90
42913;DHT22;50720;54.324;18.558;2023-04-25T00:46:47;11.80;99.90
42913;DHT22;50720;54.324;18.558;2023-04-25T00:49:17;11.80;99.90
42913;DHT22;50720;54.324;18.558;2023-04-25T00:51:47;11.70;99.90
42913;DHT22;50720;54.324;18.558;2023-04-25T00:54:17;11.80;99.90
42913;DHT22;50720;54.324;18.558;2023-04-25T00:56:47;11.70;99.90
42913;DHT22;50720;54.324;18.558;2023-04-25T00:59:19;11.70;99.90
42913;DHT22;50720;54.324;18.558;2023-04-25T01:01:48;11.60;99.90
42913;DHT22;50720;54.324;18.558;2023-04-25T01:04:18;11.60;99.90
42913;DHT22;50720;54.324;18.558;2023-04-25T01:06:48;11.60;99.90
42913;DHT22;50720;54.324;18.558;2023-04-25T01:09:19;11.60;99.90
42913;DHT22;50720;54.324;18.558;2023-04-25T01:11:49;11.60;99.90
42913;DHT22;50720;54.324;18.558;2023-04-25T01:14:20;11.60;99.90
42913;DHT22;50720;54.324;18.558;2023-04-25T01:16:50;11.60;99.90
42913;DHT22;50720;54.324;18.558;2023-04-25T01:19:21;11.60;99.90
42913;DHT22;50720;54.324;18.558;2023-04-25T01:21:52;11.50;99.90
42913;DHT22;50720;54.324;18.558;2023-04-25T01:24:21;11.40;99.90
42913;DHT22;50720;54.324;18.558;2023-04-25T01:26:52;11.40;99.90
42913;DHT22;50720;54.324;18.558;2023-04-25T01:29:24;11.40;99.90
42913;DHT22;50720;54.324;18.558;2023-04-25T01:31:54;11.40;99.90
42913;DHT22;50720;54.324;18.558;2023-04-25T01:34:24;11.40;99.90
42913;DHT22;50720;54.324;18.558;2023-04-25T01:36:55;11.40;99.90
42913;DHT22;50720;54.324;18.558;2023-04-25T01:39:24;11.40;99.90
42913;DHT22;50720;54.324;18.558;2023-04-25T01:41:54;11.30;99.90
42913;DHT22;50720;54.324;18.558;2023-04-25T01:44:24;11.30;99.90
42913;DHT22;50720;54.324;18.558;2023-04-25T01:46:54;11.30;99.90
42913;DHT22;50720;54.324;18.558;2023-04-25T01:49:23;11.20;99.90
42913;DHT22;50720;54.324;18.558;2023-04-25T01:51:55;11.30;99.90
42913;DHT22;50720;54.324;18.558;2023-04-25T01:54:24;11.30;99.90
42913;DHT22;50720;54.324;18.558;2023-04-25T01:56:57;11.30;99.90
42913;DHT22;50720;54.324;18.558;2023-04-25T01:59:26;11.20;99.90
42913;DHT22;50720;54.324;18.558;2023-04-25T02:01:56;11.20;99.90
42913;DHT22;50720;54.324;18.558;2023-04-25T02:04:26;11.20;99.90
42913;DHT22;50720;54.324;18.558;2023-04-25T02:06:57;11.20;99.90
42913;DHT22;50720;54.324;18.558;2023-04-25T02:09:27;11.20;99.90
42913;DHT22;50720;54.324;18.558;2023-04-25T02:11:57;11.20;99.90
42913;DHT22;50720;54.324;18.558;2023-04-25T02:14:27;11.30;99.90
42913;DHT22;50720;54.324;18.558;2023-04-25T02:16:57;11.30;99.90
42913;DHT22;50720;54.324;18.558;2023-04-25T02:19:26;11.30;99.90
42913;DHT22;50720;54.324;18.558;2023-04-25T02:21:58;11.30;99.90
42913;DHT22;50720;54.324;18.558;2023-04-25T02:24:27;11.30;99.90
42913;DHT22;50720;54.324;18.558;2023-04-25T02:26:57;11.30;99.90
42913;DHT22;50720;54.324;18.558;2023-04-25T02:29:26;11.30;99.90
42913;DHT22;50720;54.324;18.558;2023-04-25T02:31:56;11.30;99.90
42913;DHT22;50720;54.324;18.558;2023-04-25T02:34:25;11.20;99.90
42913;DHT22;50720;54.324;18.558;2023-04-25T02:36:57;11.20;99.90
42913;DHT22;50720;54.324;18.558;2023-04-25T02:39:26;11.20;99.90
42913;DHT22;50720;54.324;18.558;2023-04-25T02:42:16;11.20;99.90
42913;DHT22;50720;54.324;18.558;2023-04-25T02:44:45;11.20;99.90
42913;DHT22;50720;54.324;18.558;2023-04-25T02:47:15;11.10;99.90
42913;DHT22;50720;54.324;18.558;2023-04-25T02:49:45;11.10;99.90
42913;DHT22;50720;54.324;18.558;2023-04-25T02:52:16;11.10;99.90
42913;DHT22;50720;54.324;18.558;2023-04-25T02:54:46;11.10;99.90
42913;DHT22;50720;54.324;18.558;2023-04-25T02:57:16;11.10;99.90
42913;DHT22;50720;54.324;18.558;2023-04-25T02:59:45;11.10;99.90
42913;DHT22;50720;54.324;18.558;2023-04-25T03:02:15;11.10;99.90
42913;DHT22;50720;54.324;18.558;2023-04-25T03:04:44;11.10;99.90
42913;DHT22;50720;54.324;18.558;2023-04-25T03:07:16;11.10;99.90
42913;DHT22;50720;54.324;18.558;2023-04-25T03:09:45;11.10;99.90
42913;DHT22;50720;54.324;18.558;2023-04-25T03:12:15;11.10;99.90
42913;DHT22;50720;54.324;18.558;2023-04-25T03:14:45;11.20;99.90
42913;DHT22;50720;54.324;18.558;2023-04-25T03:17:15;11.10;99.90
42913;DHT22;50720;54.324;18.558;2023-04-25T03:19:45;11.20;99.90
42913;DHT22;50720;54.324;18.558;2023-04-25T03:22:17;11.20;99.90
42913;DHT22;50720;54.324;18.558;2023-04-25T03:24:46;11.20;99.90
42913;DHT22;50720;54.324;18.558;2023-04-25T03:27:16;11.10;99.90
42913;DHT22;50720;54.324;18.558;2023-04-25T03:29:45;11.10;99.90
42913;DHT22;50720;54.324;18.558;2023-04-25T03:32:15;11.20;99.90
42913;DHT22;50720;54.324;18.558;2023-04-25T03:34:45;11.10;99.90
42913;DHT22;50720;54.324;18.558;2023-04-25T03:37:16;11.10;99.90
42913;DHT22;50720;54.324;18.558;2023-04-25T03:39:45;11.20;99.90
42913;DHT22;50720;54.324;18.558;2023-04-25T03:42:15;11.20;99.90
42913;DHT22;50720;54.324;18.558;2023-04-25T03:44:45;11.20;99.90
42913;DHT22;50720;54.324;18.558;2023-04-25T03:47:15;11.10;99.90
42913;DHT22;50720;54.324;18.558;2023-04-25T03:49:44;10.70;99.90
42913;DHT22;50720;54.324;18.558;2023-04-25T03:52:16;10.50;99.90
42913;DHT22;50720;54.324;18.558;2023-04-25T03:54:45;10.40;99.90
42913;DHT22;50720;54.324;18.558;2023-04-25T03:57:15;10.20;99.90
42913;DHT22;50720;54.324;18.558;2023-04-25T03:59:44;10.10;99.90
42913;DHT22;50720;54.324;18.558;2023-04-25T04:02:14;9.90;99.90
42913;DHT22;50720;54.324;18.558;2023-04-25T04:04:44;9.80;99.90
42913;DHT22;50720;54.324;18.558;2023-04-25T04:07:15;9.60;99.90
42913;DHT22;50720;54.324;18.558;2023-04-25T04:09:45;9.50;99.90
42913;DHT22;50720;54.324;18.558;2023-04-25T04:12:14;9.40;99.90
42913;DHT22;50720;54.324;18.558;2023-04-25T04:14:44;9.40;99.90
42913;DHT22;50720;54.324;18.558;2023-04-25T04:17:14;9.30;99.90
42913;DHT22;50720;54.324;18.558;2023-04-25T04:19:43;9.30;99.90
42913;DHT22;50720;54.324;18.558;2023-04-25T04:22:13;9.30;99.90
42913;DHT22;50720;54.324;18.558;2023-04-25T04:24:44;9.30;99.90
42913;DHT22;50720;54.324;18.558;2023-04-25T04:27:16;9.30;99.90
42913;DHT22;50720;54.324;18.558;2023-04-25T04:29:47;9.20;99.90
42913;DHT22;50720;54.324;18.558;2023-04-25T04:32:17;9.20;99.90
42913;DHT22;50720;54.324;18.558;2023-04-25T04:34:46;9.20;99.90
42913;DHT22;50720;54.324;18.558;2023-04-25T04:37:17;9.20;99.90
42913;DHT22;50720;54.324;18.558;2023-04-25T04:39:48;9.10;99.90
42913;DHT22;50720;54.324;18.558;2023-04-25T04:42:18;9.10;99.90
42913;DHT22;50720;54.324;18.558;2023-04-25T04:44:48;9.20;99.90
42913;DHT22;50720;54.324;18.558;2023-04-25T04:47:20;9.20;99.90
42913;DHT22;50720;54.324;18.558;2023-04-25T04:49:51;9.10;99.90
42913;DHT22;50720;54.324;18.558;2023-04-25T04:52:21;9.10;99.90
42913;DHT22;50720;54.324;18.558;2023-04-25T04:54:52;9.20;99.90
42913;DHT22;50720;54.324;18.558;2023-04-25T04:57:21;9.10;99.90
42913;DHT22;50720;54.324;18.558;2023-04-25T04:59:51;9.10;99.90
42913;DHT22;50720;54.324;18.558;2023-04-25T05:02:21;9.00;99.90
42913;DHT22;50720;54.324;18.558;2023-04-25T05:04:51;9.10;99.90
42913;DHT22;50720;54.324;18.558;2023-04-25T05:07:20;9.10;99.90
42913;DHT22;50720;54.324;18.558;2023-04-25T05:09:51;9.10;99.90
42913;DHT22;50720;54.324;18.558;2023-04-25T05:12:21;9.20;99.90
42913;DHT22;50720;54.324;18.558;2023-04-25T05:14:50;9.10;99.90
42913;DHT22;50720;54.324;18.558;2023-04-25T05:17:20;9.20;99.90
42913;DHT22;50720;54.324;18.558;2023-04-25T05:19:50;9.20;99.90
42913;DHT22;50720;54.324;18.558;2023-04-25T05:22:19;9.10;99.90
42913;DHT22;50720;54.324;18.558;2023-04-25T05:24:49;9.10;99.90
42913;DHT22;50720;54.324;18.558;2023-04-25T05:27:24;9.10;99.90
42913;DHT22;50720;54.324;18.558;2023-04-25T05:29:53;9.10;99.90
42913;DHT22;50720;54.324;18.558;2023-04-25T05:32:23;9.00;99.90
42913;DHT22;50720;54.324;18.558;2023-04-25T05:34:54;9.10;99.90
42913;DHT22;50720;54.324;18.558;2023-04-25T05:37:23;9.00;99.90
42913;DHT22;50720;54.324;18.558;2023-04-25T05:39:53;9.00;99.90
42913;DHT22;50720;54.324;18.558;2023-04-25T05:42:25;9.10;99.90
42913;DHT22;50720;54.324;18.558;2023-04-25T05:44:54;9.00;99.90
42913;DHT22;50720;54.324;18.558;2023-04-25T05:47:24;8.90;99.90
42913;DHT22;50720;54.324;18.558;2023-04-25T05:49:53;8.90;99.90
42913;DHT22;50720;54.324;18.558;2023-04-25T05:52:23;8.90;99.90
42913;DHT22;50720;54.324;18.558;2023-04-25T05:54:53;8.90;99.90
42913;DHT22;50720;54.324;18.558;2023-04-25T05:57:26;8.80;99.90
42913;DHT22;50720;54.324;18.558;2023-04-25T05:59:56;8.80;99.90
42913;DHT22;50720;54.324;18.558;2023-04-25T06:02:25;8.80;99.90
42913;DHT22;50720;54.324;18.558;2023-04-25T06:04:55;8.90;99.90
42913;DHT22;50720;54.324;18.558;2023-04-25T06:07:26;8.90;99.90
42913;DHT22;50720;54.324;18.558;2023-04-25T06:09:55;8.80;99.90
42913;DHT22;50720;54.324;18.558;2023-04-25T06:12:26;8.80;99.90
42913;DHT22;50720;54.324;18.558;2023-04-25T06:14:56;8.80;99.90
42913;DHT22;50720;54.324;18.558;2023-04-25T06:17:25;8.80;99.90
42913;DHT22;50720;54.324;18.558;2023-04-25T06:19:55;8.60;99.90
42913;DHT22;50720;54.324;18.558;2023-04-25T06:22:26;8.70;99.90
42913;DHT22;50720;54.324;18.558;2023-04-25T06:24:55;8.70;99.90
42913;DHT22;50720;54.324;18.558;2023-04-25T06:27:28;8.70;99.90
42913;DHT22;50720;54.324;18.558;2023-04-25T06:29:58;8.70;99.90
42913;DHT22;50720;54.324;18.558;2023-04-25T06:32:28;8.60;99.90
42913;DHT22;50720;54.324;18.558;2023-04-25T06:34:58;8.60;99.90
42913;DHT22;50720;54.324;18.558;2023-04-25T06:37:28;8.60;99.90
42913;DHT22;50720;54.324;18.558;2023-04-25T06:39:58;8.70;99.90
42913;DHT22;50720;54.324;18.558;2023-04-25T06:42:29;8.70;99.90
42913;DHT22;50720;54.324;18.558;2023-04-25T06:44:58;8.70;99.90
42913;DHT22;50720;54.324;18.558;2023-04-25T06:47:28;8.70;99.90
42913;DHT22;50720;54.324;18.558;2023-04-25T06:49:58;8.80;99.90
42913;DHT22;50720;54.324;18.558;2023-04-25T06:52:27;8.90;99.90
42913;DHT22;50720;54.324;18.558;2023-04-25T06:54:57;9.10;99.90
42913;DHT22;50720;54.324;18.558;2023-04-25T06:57:29;9.10;99.90
42913;DHT22;50720;54.324;18.558;2023-04-25T06:59:58;9.10;99.90
42913;DHT22;50720;54.324;18.558;2023-04-25T07:02:29;9.30;99.90
42913;DHT22;50720;54.324;18.558;2023-04-25T07:04:58;9.30;99.90
42913;DHT22;50720;54.324;18.558;2023-04-25T07:07:28;9.40;99.90
42913;DHT22;50720;54.324;18.558;2023-04-25T07:09:58;9.40;99.90
42913;DHT22;50720;54.324;18.558;2023-04-25T07:12:29;9.40;99.90
42913;DHT22;50720;54.324;18.558;2023-04-25T07:14:58;9.50;99.90
42913;DHT22;50720;54.324;18.558;2023-04-25T07:17:34;9.60;99.90
42913;DHT22;50720;54.324;18.558;2023-04-25T07:20:04;9.50;99.90
42913;DHT22;50720;54.324;18.558;2023-04-25T07:22:36;9.50;99.90
42913;DHT22;50720;54.324;18.558;2023-04-25T07:25:06;9.40;99.90
42913;DHT22;50720;54.324;18.558;2023-04-25T07:27:38;9.30;99.90
42913;DHT22;50720;54.324;18.558;2023-04-25T07:30:08;9.30;99.90
42913;DHT22;50720;54.324;18.558;2023-04-25T07:32:38;9.40;99.90
42913;DHT22;50720;54.324;18.558;2023-04-25T07:35:08;9.20;99.90
42913;DHT22;50720;54.324;18.558;2023-04-25T07:37:38;9.20;99.90
42913;DHT22;50720;54.324;18.558;2023-04-25T07:40:08;9.20;99.90
42913;DHT22;50720;54.324;18.558;2023-04-25T07:42:40;9.10;99.90
42913;DHT22;50720;54.324;18.558;2023-04-25T07:45:10;9.20;99.90
42913;DHT22;50720;54.324;18.558;2023-04-25T07:47:39;9.30;99.90
42913;DHT22;50720;54.324;18.558;2023-04-25T07:50:09;9.40;99.90
42913;DHT22;50720;54.324;18.558;2023-04-25T07:52:39;9.50;99.90
42913;DHT22;50720;54.324;18.558;2023-04-25T07:55:09;9.60;99.90
42913;DHT22;50720;54.324;18.558;2023-04-25T07:57:40;9.70;99.90
42913;DHT22;50720;54.324;18.558;2023-04-25T08:00:11;9.80;99.90
42913;DHT22;50720;54.324;18.558;2023-04-25T08:02:40;9.90;99.90
42913;DHT22;50720;54.324;18.558;2023-04-25T08:05:10;9.90;99.90
42913;DHT22;50720;54.324;18.558;2023-04-25T08:07:43;9.90;99.90
42913;DHT22;50720;54.324;18.558;2023-04-25T08:10:13;9.90;99.90
42913;DHT22;50720;54.324;18.558;2023-04-25T08:12:44;10.00;99.90
42913;DHT22;50720;54.324;18.558;2023-04-25T08:15:14;10.00;99.90
42913;DHT22;50720;54.324;18.558;2023-04-25T08:17:43;10.10;99.90
42913;DHT22;50720;54.324;18.558;2023-04-25T08:20:13;10.20;99.90
42913;DHT22;50720;54.324;18.558;2023-04-25T08:22:43;10.40;99.90
42913;DHT22;50720;54.324;18.558;2023-04-25T08:25:12;10.50;99.90
42913;DHT22;50720;54.324;18.558;2023-04-25T08:27:43;10.70;99.90
42913;DHT22;50720;54.324;18.558;2023-04-25T08:30:14;10.60;99.90
42913;DHT22;50720;54.324;18.558;2023-04-25T08:32:43;10.80;99.90
42913;DHT22;50720;54.324;18.558;2023-04-25T08:35:13;11.00;99.90
42913;DHT22;50720;54.324;18.558;2023-04-25T08:37:44;11.00;99.90
42913;DHT22;50720;54.324;18.558;2023-04-25T08:40:15;10.90;99.90
42913;DHT22;50720;54.324;18.558;2023-04-25T08:42:47;11.00;99.90
42913;DHT22;50720;54.324;18.558;2023-04-25T08:45:18;11.10;99.90
42913;DHT22;50720;54.324;18.558;2023-04-25T08:47:51;11.00;99.90
42913;DHT22;50720;54.324;18.558;2023-04-25T08:50:22;11.10;99.90
42913;DHT22;50720;54.324;18.558;2023-04-25T08:52:54;11.10;99.90
42913;DHT22;50720;54.324;18.558;2023-04-25T08:55:26;11.20;99.90
42913;DHT22;50720;54.324;18.558;2023-04-25T08:57:58;11.20;99.90
42913;DHT22;50720;54.324;18.558;2023-04-25T09:00:28;11.30;99.90
42913;DHT22;50720;54.324;18.558;2023-04-25T09:02:58;11.30;99.90
42913;DHT22;50720;54.324;18.558;2023-04-25T09:05:29;11.20;99.90
42913;DHT22;50720;54.324;18.558;2023-04-25T09:07:59;11.20;99.90
42913;DHT22;50720;54.324;18.558;2023-04-25T09:10:29;11.30;99.90
42913;DHT22;50720;54.324;18.558;2023-04-25T09:13:07;11.30;99.90
42913;DHT22;50720;54.324;18.558;2023-04-25T09:15:48;11.40;99.90
42913;DHT22;50720;54.324;18.558;2023-04-25T09:18:25;11.50;99.90
42913;DHT22;50720;54.324;18.558;2023-04-25T09:21:05;11.50;99.90
42913;DHT22;50720;54.324;18.558;2023-04-25T09:23:43;11.30;99.90
42913;DHT22;50720;54.324;18.558;2023-04-25T09:26:14;11.20;99.90
42913;DHT22;50720;54.324;18.558;2023-04-25T09:28:46;11.10;99.90
42913;DHT22;50720;54.324;18.558;2023-04-25T09:31:22;10.90;99.90
42913;DHT22;50720;54.324;18.558;2023-04-25T09:33:59;10.60;99.90
42913;DHT22;50720;54.324;18.558;2023-04-25T09:36:30;10.60;99.90
42913;DHT22;50720;54.324;18.558;2023-04-25T09:39:00;10.60;99.90
42913;DHT22;50720;54.324;18.558;2023-04-25T09:41:32;10.50;99.90
42913;DHT22;50720;54.324;18.558;2023-04-25T09:44:07;10.50;99.90
42913;DHT22;50720;54.324;18.558;2023-04-25T09:46:37;10.50;99.90
42913;DHT22;50720;54.324;18.558;2023-04-25T09:49:07;10.50;99.90
42913;DHT22;50720;54.324;18.558;2023-04-25T09:51:37;10.50;99.90
42913;DHT22;50720;54.324;18.558;2023-04-25T09:54:07;10.50;99.90
42913;DHT22;50720;54.324;18.558;2023-04-25T09:56:37;10.50;99.90
42913;DHT22;50720;54.324;18.558;2023-04-25T09:59:09;10.70;99.90
42913;DHT22;50720;54.324;18.558;2023-04-25T10:01:40;10.90;99.90
42913;DHT22;50720;54.324;18.558;2023-04-25T10:04:12;11.00;99.90
42913;DHT22;50720;54.324;18.558;2023-04-25T10:06:45;11.00;99.90
42913;DHT22;50720;54.324;18.558;2023-04-25T10:09:15;11.20;99.90
42913;DHT22;50720;54.324;18.558;2023-04-25T10:11:47;11.30;99.90
42913;DHT22;50720;54.324;18.558;2023-04-25T10:14:18;11.40;99.90
42913;DHT22;50720;54.324;18.558;2023-04-25T10:16:48;11.40;99.90
42913;DHT22;50720;54.324;18.558;2023-04-25T10:19:21;11.60;99.90
42913;DHT22;50720;54.324;18.558;2023-04-25T10:21:54;11.60;99.90
42913;DHT22;50720;54.324;18.558;2023-04-25T10:24:25;11.70;99.90
42913;DHT22;50720;54.324;18.558;2023-04-25T10:26:55;11.80;99.90
42913;DHT22;50720;54.324;18.558;2023-04-25T10:29:26;11.70;99.90
42913;DHT22;50720;54.324;18.558;2023-04-25T10:31:57;11.40;99.90
42913;DHT22;50720;54.324;18.558;2023-04-25T10:34:39;11.30;99.90
42913;DHT22;50720;54.324;18.558;2023-04-25T10:37:09;11.20;99.90
42913;DHT22;50720;54.324;18.558;2023-04-25T10:39:40;11.00;99.90
42913;DHT22;50720;54.324;18.558;2023-04-25T10:42:11;11.00;99.90
42913;DHT22;50720;54.324;18.558;2023-04-25T10:45:01;11.00;99.90
42913;DHT22;50720;54.324;18.558;2023-04-25T10:47:35;11.10;99.90
42913;DHT22;50720;54.324;18.558;2023-04-25T10:50:06;11.10;99.90
42913;DHT22;50720;54.324;18.558;2023-04-25T10:52:39;11.10;99.90
42913;DHT22;50720;54.324;18.558;2023-04-25T10:55:09;11.20;99.90
42913;DHT22;50720;54.324;18.558;2023-04-25T10:57:40;11.10;99.90
42913;DHT22;50720;54.324;18.558;2023-04-25T11:00:19;11.20;99.90
42913;DHT22;50720;54.324;18.558;2023-04-25T11:02:58;11.30;99.90
42913;DHT22;50720;54.324;18.558;2023-04-25T11:05:31;11.20;99.90
42913;DHT22;50720;54.324;18.558;2023-04-25T11:08:15;11.10;99.90
42913;DHT22;50720;54.324;18.558;2023-04-25T11:10:50;11.20;99.90
42913;DHT22;50720;54.324;18.558;2023-04-25T11:13:20;11.30;99.90
42913;DHT22;50720;54.324;18.558;2023-04-25T11:15:53;11.30;99.90
42913;DHT22;50720;54.324;18.558;2023-04-25T11:18:41;11.30;99.90
42913;DHT22;50720;54.324;18.558;2023-04-25T11:21:11;11.30;99.90
42913;DHT22;50720;54.324;18.558;2023-04-25T11:23:41;11.30;99.90
42913;DHT22;50720;54.324;18.558;2023-04-25T11:26:13;11.30;99.90
42913;DHT22;50720;54.324;18.558;2023-04-25T11:28:45;11.30;99.90
42913;DHT22;50720;54.324;18.558;2023-04-25T11:31:20;11.40;99.90
42913;DHT22;50720;54.324;18.558;2023-04-25T11:33:50;11.30;99.90
42913;DHT22;50720;54.324;18.558;2023-04-25T11:36:22;11.20;99.90
42913;DHT22;50720;54.324;18.558;2023-04-25T11:38:54;11.30;99.90
42913;DHT22;50720;54.324;18.558;2023-04-25T11:41:23;11.40;99.90
42913;DHT22;50720;54.324;18.558;2023-04-25T11:43:55;11.50;99.90
42913;DHT22;50720;54.324;18.558;2023-04-25T11:46:27;11.60;99.90
42913;DHT22;50720;54.324;18.558;2023-04-25T11:48:57;11.70;99.90
42913;DHT22;50720;54.324;18.558;2023-04-25T11:51:26;11.70;99.90
42913;DHT22;50720;54.324;18.558;2023-04-25T11:53:56;11.80;99.90
42913;DHT22;50720;54.324;18.558;2023-04-25T11:56:26;11.80;99.90
42913;DHT22;50720;54.324;18.558;2023-04-25T11:58:57;11.70;99.90
42913;DHT22;50720;54.324;18.558;2023-04-25T12:01:29;11.60;99.90
42913;DHT22;50720;54.324;18.558;2023-04-25T12:04:13;11.50;99.90
42913;DHT22;50720;54.324;18.558;2023-04-25T12:06:44;11.40;99.90
42913;DHT22;50720;54.324;18.558;2023-04-25T12:09:17;11.30;99.90
42913;DHT22;50720;54.324;18.558;2023-04-25T12:11:47;11.30;99.90
42913;DHT22;50720;54.324;18.558;2023-04-25T12:14:27;11.30;99.90
42913;DHT22;50720;54.324;18.558;2023-04-25T12:17:00;11.50;99.90
42913;DHT22;50720;54.324;18.558;2023-04-25T12:19:33;11.40;99.90
42913;DHT22;50720;54.324;18.558;2023-04-25T12:22:03;11.40;99.90
42913;DHT22;50720;54.324;18.558;2023-04-25T12:24:34;11.40;99.90
42913;DHT22;50720;54.324;18.558;2023-04-25T12:27:06;11.50;99.90
42913;DHT22;50720;54.324;18.558;2023-04-25T12:29:37;11.60;99.90
42913;DHT22;50720;54.324;18.558;2023-04-25T12:32:17;11.70;99.90
42913;DHT22;50720;54.324;18.558;2023-04-25T12:34:47;11.70;99.90
42913;DHT22;50720;54.324;18.558;2023-04-25T12:37:16;11.60;99.90
42913;DHT22;50720;54.324;18.558;2023-04-25T12:39:46;11.60;99.90
42913;DHT22;50720;54.324;18.558;2023-04-25T12:42:15;11.60;99.90
42913;DHT22;50720;54.324;18.558;2023-04-25T12:44:45;11.50;99.90
42913;DHT22;50720;54.324;18.558;2023-04-25T12:47:16;11.40;99.90
42913;DHT22;50720;54.324;18.558;2023-04-25T12:49:46;11.30;99.90
42913;DHT22;50720;54.324;18.558;2023-04-25T12:52:16;11.20;99.90
42913;DHT22;50720;54.324;18.558;2023-04-25T12:54:46;11.10;99.90
42913;DHT22;50720;54.324;18.558;2023-04-25T12:57:15;11.20;99.90
42913;DHT22;50720;54.324;18.558;2023-04-25T12:59:45;11.20;99.90
42913;DHT22;50720;54.324;18.558;2023-04-25T13:02:14;11.10;99.90
42913;DHT22;50720;54.324;18.558;2023-04-25T13:04:47;11.10;99.90
42913;DHT22;50720;54.324;18.558;2023-04-25T13:07:16;11.10;99.90
42913;DHT22;50720;54.324;18.558;2023-04-25T13:09:45;11.20;99.90
42913;DHT22;50720;54.324;18.558;2023-04-25T13:12:15;11.40;99.90
42913;DHT22;50720;54.324;18.558;2023-04-25T13:14:45;11.50;99.90
42913;DHT22;50720;54.324;18.558;2023-04-25T13:17:14;11.60;99.90
42913;DHT22;50720;54.324;18.558;2023-04-25T13:19:45;11.80;99.90
42913;DHT22;50720;54.324;18.558;2023-04-25T13:22:14;12.00;99.90
42913;DHT22;50720;54.324;18.558;2023-04-25T13:24:45;12.20;99.90
42913;DHT22;50720;54.324;18.558;2023-04-25T13:27:14;12.20;99.90
42913;DHT22;50720;54.324;18.558;2023-04-25T13:29:44;12.20;99.90
42913;DHT22;50720;54.324;18.558;2023-04-25T13:32:14;12.20;99.90
42913;DHT22;50720;54.324;18.558;2023-04-25T13:34:45;12.10;99.90
42913;DHT22;50720;54.324;18.558;2023-04-25T13:37:15;12.00;99.90
42913;DHT22;50720;54.324;18.558;2023-04-25T13:39:44;12.10;99.90
42913;DHT22;50720;54.324;18.558;2023-04-25T13:42:14;11.90;99.90
42913;DHT22;50720;54.324;18.558;2023-04-25T13:44:45;12.00;99.90
42913;DHT22;50720;54.324;18.558;2023-04-25T13:47:14;11.90;99.90
42913;DHT22;50720;54.324;18.558;2023-04-25T13:49:45;11.90;99.90
42913;DHT22;50720;54.324;18.558;2023-04-25T13:52:14;11.90;99.90
42913;DHT22;50720;54.324;18.558;2023-04-25T13:54:44;11.90;99.90
42913;DHT22;50720;54.324;18.558;2023-04-25T13:57:13;12.00;99.90
42913;DHT22;50720;54.324;18.558;2023-04-25T13:59:44;12.10;99.90
42913;DHT22;50720;54.324;18.558;2023-04-25T14:02:13;12.10;99.90
42913;DHT22;50720;54.324;18.558;2023-04-25T14:04:43;12.10;99.90
42913;DHT22;50720;54.324;18.558;2023-04-25T14:07:14;12.10;99.90
42913;DHT22;50720;54.324;18.558;2023-04-25T14:09:45;12.10;99.90
42913;DHT22;50720;54.324;18.558;2023-04-25T14:12:17;12.10;99.90
42913;DHT22;50720;54.324;18.558;2023-04-25T14:14:47;12.00;99.90
42913;DHT22;50720;54.324;18.558;2023-04-25T14:17:16;12.00;99.90
42913;DHT22;50720;54.324;18.558;2023-04-25T14:19:46;12.20;99.90
42913;DHT22;50720;54.324;18.558;2023-04-25T14:22:17;12.00;99.90
42913;DHT22;50720;54.324;18.558;2023-04-25T14:24:47;12.00;99.90
42913;DHT22;50720;54.324;18.558;2023-04-25T14:27:17;11.90;99.90
42913;DHT22;50720;54.324;18.558;2023-04-25T14:29:47;11.90;99.90
42913;DHT22;50720;54.324;18.558;2023-04-25T14:32:16;11.80;99.90
42913;DHT22;50720;54.324;18.558;2023-04-25T14:34:46;11.20;99.90
42913;DHT22;50720;54.324;18.558;2023-04-25T14:37:17;10.60;99.90
42913;DHT22;50720;54.324;18.558;2023-04-25T14:39:47;10.20;99.90
42913;DHT22;50720;54.324;18.558;2023-04-25T14:42:16;10.10;99.90
42913;DHT22;50720;54.324;18.558;2023-04-25T14:44:46;10.00;99.90
42913;DHT22;50720;54.324;18.558;2023-04-25T14:47:15;10.00;99.90
42913;DHT22;50720;54.324;18.558;2023-04-25T14:49:46;9.90;99.90
42913;DHT22;50720;54.324;18.558;2023-04-25T14:52:23;9.80;99.90
42913;DHT22;50720;54.324;18.558;2023-04-25T14:54:53;9.70;99.90
42913;DHT22;50720;54.324;18.558;2023-04-25T14:57:23;9.60;99.90
42913;DHT22;50720;54.324;18.558;2023-04-25T14:59:53;9.60;99.90
42913;DHT22;50720;54.324;18.558;2023-04-25T15:02:23;9.50;99.90
42913;DHT22;50720;54.324;18.558;2023-04-25T15:04:53;9.50;99.90
42913;DHT22;50720;54.324;18.558;2023-04-25T15:07:25;9.40;99.90
42913;DHT22;50720;54.324;18.558;2023-04-25T15:09:55;9.30;99.90
42913;DHT22;50720;54.324;18.558;2023-04-25T15:12:24;9.40;99.90
42913;DHT22;50720;54.324;18.558;2023-04-25T15:14:56;9.30;99.90
42913;DHT22;50720;54.324;18.558;2023-04-25T15:17:25;9.30;99.90
42913;DHT22;50720;54.324;18.558;2023-04-25T15:19:59;9.20;99.90
42913;DHT22;50720;54.324;18.558;2023-04-25T15:22:30;9.20;99.90
42913;DHT22;50720;54.324;18.558;2023-04-25T15:25:00;9.10;99.90
42913;DHT22;50720;54.324;18.558;2023-04-25T15:27:29;9.10;99.90
42913;DHT22;50720;54.324;18.558;2023-04-25T15:29:59;9.10;99.90
42913;DHT22;50720;54.324;18.558;2023-04-25T15:32:30;9.10;99.90
42913;DHT22;50720;54.324;18.558;2023-04-25T15:35:05;9.00;99.90
42913;DHT22;50720;54.324;18.558;2023-04-25T15:37:37;9.10;99.90
42913;DHT22;50720;54.324;18.558;2023-04-25T15:40:08;9.00;99.90
42913;DHT22;50720;54.324;18.558;2023-04-25T15:42:39;9.00;99.90